Time;durP1;ratioP1;P1;durP2;ratioP2;P2;SDS_P1;SDS_P2;PMS_P1;PMS_P2;Temp;Humidity;BMP_temperature;BMP_pressure;BME280_temperature;BME280_humidity;BME280_pressure;Samples;Min_cycle;Max_cycle;Signal;HPM_P1;HPM_P2
2023/06/04 00:00:11;;;;;;;19.23;11.85;;;;;;;10.80;100.00;93009.66;2594669;22;20496;-82
2023/06/04 00:01:12;;;;;;;17.27;11.40;;;;;;;10.79;100.00;93011.56;2570302;22;20000;-81
2023/06/04 00:02:13;;;;;;;22.25;11.48;;;;;;;10.97;100.00;93011.13;2582627;22;20018;-82
2023/06/04 00:03:14;;;;;;;21.17;11.43;;;;;;;10.91;100.00;93015.50;2596041;22;20041;-79
2023/06/04 00:04:17;;;;;;;18.20;11.10;;;;;;;10.84;100.00;93005.75;2608583;22;20324;-81
2023/06/04 00:05:25;;;;;;;20.38;10.93;;;;;;;10.80;100.00;93009.66;2607797;22;20006;-79
2023/06/04 00:06:26;;;;;;;19.30;10.88;;;;;;;10.80;100.00;93015.00;2597186;22;20625;-81
2023/06/04 00:07:27;;;;;;;23.35;11.57;;;;;;;10.78;100.00;93014.66;2596188;22;20007;-81
2023/06/04 00:08:31;;;;;;;18.15;11.55;;;;;;;10.64;100.00;93010.41;2582326;22;20043;-81
2023/06/04 00:09:32;;;;;;;18.17;11.57;;;;;;;10.65;100.00;93013.84;2582991;22;20006;-80
2023/06/04 00:10:33;;;;;;;20.08;11.35;;;;;;;10.64;100.00;93009.66;2581441;22;20123;-79
2023/06/04 00:11:35;;;;;;;19.38;11.18;;;;;;;10.51;100.00;93022.94;2584786;22;20015;-78
2023/06/04 00:12:36;;;;;;;18.92;10.98;;;;;;;10.53;100.00;93020.59;2586658;22;20407;-79
2023/06/04 00:13:37;;;;;;;17.48;11.30;;;;;;;10.57;100.00;93007.91;2597980;22;20003;-81
2023/06/04 00:14:39;;;;;;;16.80;11.35;;;;;;;10.56;100.00;93012.50;2600257;22;20034;-79
2023/06/04 00:15:41;;;;;;;23.55;11.75;;;;;;;10.53;100.00;93015.25;2597156;22;20003;-80
2023/06/04 00:16:56;;;;;;;18.13;11.65;;;;;;;10.55;100.00;93019.03;2610591;22;19995;-80
2023/06/04 00:17:57;;;;;;;20.92;11.70;;;;;;;10.64;100.00;93009.66;2608126;22;20029;-82
2023/06/04 00:18:58;;;;;;;21.65;11.68;;;;;;;10.55;100.00;93013.69;2594430;22;20015;-80
2023/06/04 00:19:59;;;;;;;21.02;11.50;;;;;;;10.46;100.00;93015.44;2595703;22;20422;-80
2023/06/04 00:21:00;;;;;;;14.68;11.10;;;;;;;10.44;100.00;93012.41;2582120;22;20008;-80
2023/06/04 00:22:02;;;;;;;21.83;12.20;;;;;;;10.42;100.00;93012.84;2582279;22;20050;-81
2023/06/04 00:23:06;;;;;;;20.02;11.43;;;;;;;10.46;100.00;93010.84;2608186;22;20002;-79
2023/06/04 00:24:08;;;;;;;22.02;12.10;;;;;;;10.45;100.00;93009.34;2607709;22;20007;-82
2023/06/04 00:25:16;;;;;;;16.50;10.70;;;;;;;10.41;100.00;93007.91;2582684;22;20054;-78
2023/06/04 00:26:25;;;;;;;21.60;11.77;;;;;;;10.33;100.00;93007.31;2585390;22;20669;-80
2023/06/04 00:27:34;;;;;;;18.73;11.60;;;;;;;10.34;100.00;93006.88;2583702;22;20004;-81
2023/06/04 00:28:43;;;;;;;21.48;12.32;;;;;;;10.29;100.00;93009.31;2584047;22;20004;-81
2023/06/04 00:29:51;;;;;;;21.95;11.38;;;;;;;10.31;100.00;93006.97;2598062;22;20426;-80
2023/06/04 00:30:59;;;;;;;18.00;11.48;;;;;;;10.22;100.00;93006.75;2619500;22;19999;-80
2023/06/04 00:32:08;;;;;;;21.25;11.55;;;;;;;10.44;100.00;93004.38;2595001;22;20004;-81
2023/06/04 00:33:19;;;;;;;23.13;11.15;;;;;;;10.42;100.00;92999.47;2598870;22;20010;-81
2023/06/04 00:34:26;;;;;;;17.27;11.63;;;;;;;10.40;100.00;93009.81;2607529;22;20007;-79
2023/06/04 00:35:34;;;;;;;18.63;11.30;;;;;;;10.30;100.00;93002.81;2583511;22;20007;-79
2023/06/04 00:36:42;;;;;;;16.90;11.43;;;;;;;10.28;100.00;93007.81;2585820;22;20403;-81
2023/06/04 00:37:50;;;;;;;18.73;11.98;;;;;;;10.34;100.00;92998.88;2595833;22;20493;-80
2023/06/04 00:38:59;;;;;;;19.20;12.40;;;;;;;10.31;100.00;92996.28;2596834;22;20004;-79
2023/06/04 00:40:08;;;;;;;21.33;12.52;;;;;;;10.17;100.00;93002.66;2584358;22;20004;-81
2023/06/04 00:41:23;;;;;;;17.17;11.10;;;;;;;10.12;100.00;93010.44;2588579;22;20014;-81
2023/06/04 00:42:31;;;;;;;16.98;11.27;;;;;;;10.11;100.00;93001.66;2607461;22;20185;-80
2023/06/04 00:43:45;;;;;;;17.83;11.23;;;;;;;10.24;100.00;92999.09;2595097;22;20004;-82
2023/06/04 00:44:54;;;;;;;19.08;11.50;;;;;;;10.21;100.00;92998.00;2598135;22;20310;-81
2023/06/04 00:46:04;;;;;;;21.77;11.30;;;;;;;10.14;100.00;92998.19;2596073;22;20042;-80
2023/06/04 00:47:15;;;;;;;20.23;12.27;;;;;;;10.09;100.00;92993.31;2596874;22;20026;-81
2023/06/04 00:48:27;;;;;;;19.10;11.75;;;;;;;10.01;100.00;92995.41;2583834;22;20050;-81
2023/06/04 00:49:38;;;;;;;24.23;12.07;;;;;;;9.96;100.00;93001.22;2600404;22;20011;-81
2023/06/04 00:50:49;;;;;;;20.02;12.13;;;;;;;10.05;100.00;92992.63;2594756;22;19999;-81
2023/06/04 00:51:58;;;;;;;16.55;11.60;;;;;;;10.03;100.00;93003.72;2584627;22;20481;-82
2023/06/04 00:53:08;;;;;;;22.98;11.95;;;;;;;9.99;100.00;93005.72;2598539;22;20082;-82
2023/06/04 00:54:19;;;;;;;18.75;11.77;;;;;;;10.01;100.00;93000.75;2607488;22;20421;-82
2023/06/04 00:55:45;;;;;;;19.63;12.02;;;;;;;10.14;100.00;93003.53;2603722;22;20004;-83
2023/06/04 00:56:54;;;;;;;24.48;12.88;;;;;;;9.99;100.00;93000.38;2595823;22;20014;-82
2023/06/04 00:58:04;;;;;;;19.92;12.52;;;;;;;9.94;100.00;93000.13;2598948;22;20015;-80
2023/06/04 00:59:11;;;;;;;24.40;12.82;;;;;;;9.96;100.00;92995.88;2595009;22;20004;-83
2023/06/04 01:00:20;;;;;;;22.90;13.25;;;;;;;9.89;100.00;92998.69;2584327;22;20004;-81
2023/06/04 01:01:44;;;;;;;21.92;12.43;;;;;;;9.83;100.00;92995.78;2589564;22;20758;-78
2023/06/04 01:02:55;;;;;;;23.13;12.68;;;;;;;9.82;100.00;92994.25;2599942;22;20007;-82
2023/06/04 01:04:05;;;;;;;22.77;11.52;;;;;;;9.82;100.00;92996.91;2610557;22;20007;-79
2023/06/04 01:05:29;;;;;;;20.92;11.50;;;;;;;9.78;100.00;92998.16;2594082;22;20380;-81
2023/06/04 01:06:52;;;;;;;24.95;12.45;;;;;;;9.62;100.00;93003.47;2593432;22;20011;-81
2023/06/04 01:08:02;;;;;;;17.42;12.30;;;;;;;9.75;100.00;93002.44;2598252;22;20016;-83
2023/06/04 01:09:12;;;;;;;20.23;12.30;;;;;;;9.68;100.00;92996.47;2607212;22;20037;-81
2023/06/04 01:10:22;;;;;;;21.98;11.50;;;;;;;9.65;100.00;92997.28;2596717;22;20012;-80
2023/06/04 01:11:41;;;;;;;18.55;12.27;;;;;;;9.66;100.00;92994.22;2607243;22;20156;-83
2023/06/04 01:12:49;;;;;;;17.30;12.05;;;;;;;9.70;100.00;92994.13;2598327;22;20030;-83
2023/06/04 01:13:57;;;;;;;19.77;12.20;;;;;;;9.65;100.00;92990.03;2596044;22;20120;-81
2023/06/04 01:15:06;;;;;;;18.90;12.32;;;;;;;9.70;100.00;92989.56;2583316;22;20015;-83
2023/06/04 01:16:18;;;;;;;21.13;12.05;;;;;;;9.66;100.00;92990.78;2584905;22;20003;-84
2023/06/04 01:17:37;;;;;;;21.55;12.40;;;;;;;9.58;100.00;92998.19;2584250;22;20464;-83
2023/06/04 01:18:47;;;;;;;21.13;12.38;;;;;;;9.50;100.00;92986.16;2603020;22;20031;-80
2023/06/04 01:20:11;;;;;;;17.73;12.00;;;;;;;9.48;100.00;92999.13;2607448;22;20114;-83
2023/06/04 01:21:21;;;;;;;20.25;12.25;;;;;;;9.54;100.00;92982.25;2601895;22;20007;-79
2023/06/04 01:22:59;;;;;;;24.60;12.82;;;;;;;9.53;100.00;92986.09;2592994;22;20011;-81
2023/06/04 01:24:10;;;;;;;20.63;11.57;;;;;;;9.46;100.00;92991.56;2593033;22;20098;-81
2023/06/04 01:25:27;;;;;;;20.67;12.10;;;;;;;9.59;100.00;92989.78;2600926;22;20011;-81
2023/06/04 01:26:36;;;;;;;21.05;12.65;;;;;;;9.58;100.00;92990.94;2607329;22;20037;-82
2023/06/04 01:27:44;;;;;;;22.73;12.27;;;;;;;9.48;100.00;92985.78;2596095;22;20015;-84
2023/06/04 01:28:53;;;;;;;24.17;12.23;;;;;;;9.47;100.00;92985.06;2583832;22;20090;-83
2023/06/04 01:30:03;;;;;;;20.45;12.30;;;;;;;9.40;100.00;92981.78;2597579;22;20003;-80
2023/06/04 01:31:15;;;;;;;21.52;12.20;;;;;;;9.36;100.00;92986.44;2594165;22;20023;-82
2023/06/04 01:32:26;;;;;;;17.80;11.80;;;;;;;9.36;100.00;92991.78;2573898;22;20000;-82
2023/06/04 01:33:39;;;;;;;21.33;12.98;;;;;;;9.34;100.00;92987.56;2598246;22;20007;-81
2023/06/04 01:34:52;;;;;;;22.80;12.75;;;;;;;9.28;100.00;92983.91;2594381;22;20016;-81
2023/06/04 01:36:02;;;;;;;19.77;12.90;;;;;;;9.29;100.00;92984.66;2574936;22;20442;-81
2023/06/04 01:37:12;;;;;;;25.33;13.52;;;;;;;9.34;100.00;92984.16;2585595;22;20000;-81
2023/06/04 01:38:21;;;;;;;21.98;12.57;;;;;;;9.41;100.00;92989.38;2595865;22;20475;-81
2023/06/04 01:39:29;;;;;;;20.00;12.02;;;;;;;9.43;100.00;92978.28;2608967;22;19999;-82
2023/06/04 01:40:40;;;;;;;19.75;12.60;;;;;;;9.49;100.00;92977.41;2618634;22;20002;-82
2023/06/04 01:41:57;;;;;;;22.02;11.80;;;;;;;9.45;100.00;92979.38;2607595;22;20413;-83
2023/06/04 01:43:07;;;;;;;23.10;12.70;;;;;;;9.31;100.00;92985.75;2598303;22;20114;-80
2023/06/04 01:44:15;;;;;;;21.30;13.38;;;;;;;9.26;100.00;92988.91;2596391;22;20010;-80
2023/06/04 01:45:21;;;;;;;21.52;13.38;;;;;;;9.16;100.00;92986.41;2596334;22;20008;-78
2023/06/04 01:46:22;;;;;;;21.38;13.05;;;;;;;9.16;100.00;92986.41;2595370;22;20000;-82
2023/06/04 01:47:23;;;;;;;21.88;13.32;;;;;;;9.04;100.00;92995.75;2607578;22;20334;-83
2023/06/04 01:48:32;;;;;;;19.20;12.85;;;;;;;8.99;100.00;92990.91;2605755;22;20011;-83
2023/06/04 01:49:40;;;;;;;17.75;12.20;;;;;;;9.02;100.00;92988.19;2611153;22;20086;-82
2023/06/04 01:50:48;;;;;;;22.13;12.95;;;;;;;9.10;100.00;92996.81;2597209;22;20022;-83
2023/06/04 01:51:56;;;;;;;19.63;13.13;;;;;;;9.10;100.00;92993.41;2598171;22;20434;-82
2023/06/04 01:53:06;;;;;;;21.65;11.90;;;;;;;9.05;100.00;92995.38;2608748;22;19998;-82
2023/06/04 01:54:13;;;;;;;18.13;11.88;;;;;;;9.08;100.00;92989.19;2585684;22;20023;-79
2023/06/04 01:55:29;;;;;;;21.38;12.57;;;;;;;9.06;100.00;92993.47;2588589;22;20026;-80
2023/06/04 01:56:56;;;;;;;23.08;12.48;;;;;;;9.04;100.00;92993.09;2601506;22;20085;-84
2023/06/04 01:58:04;;;;;;;20.63;13.05;;;;;;;9.03;100.00;92992.34;2609299;22;20010;-81
2023/06/04 01:59:16;;;;;;;17.77;11.93;;;;;;;9.00;100.00;93000.41;2607088;22;20018;-84
2023/06/04 02:00:25;;;;;;;20.40;12.48;;;;;;;8.98;100.00;92998.16;2609868;22;20796;-83
2023/06/04 02:01:50;;;;;;;21.90;13.48;;;;;;;8.98;100.00;92994.75;2607130;22;20090;-82
2023/06/04 02:03:00;;;;;;;23.25;12.68;;;;;;;9.01;100.00;92997.34;2613915;22;20003;-82
2023/06/04 02:04:13;;;;;;;19.05;12.43;;;;;;;9.00;100.00;92997.72;2595094;22;20004;-80
2023/06/04 02:05:26;;;;;;;18.08;12.88;;;;;;;8.91;100.00;93003.63;2586109;22;20035;-83
2023/06/04 02:06:36;;;;;;;18.42;12.52;;;;;;;8.95;100.00;92990.97;2609420;22;20007;-83
2023/06/04 02:07:48;;;;;;;20.77;12.05;;;;;;;8.93;100.00;92997.88;2594917;22;20086;-82
2023/06/04 02:09:00;;;;;;;22.48;12.63;;;;;;;8.91;100.00;92994.84;2586647;22;20452;-80
2023/06/04 02:10:17;;;;;;;25.02;13.50;;;;;;;8.93;100.00;92990.63;2597141;22;20003;-80
2023/06/04 02:11:30;;;;;;;21.13;12.63;;;;;;;8.82;100.00;93001.50;2598033;22;19999;-81
2023/06/04 02:12:42;;;;;;;24.00;12.32;;;;;;;8.81;100.00;92993.88;2607996;22;20061;-82
2023/06/04 02:13:52;;;;;;;19.13;12.23;;;;;;;8.76;100.00;93000.44;2607774;22;20003;-82
2023/06/04 02:15:03;;;;;;;18.52;12.43;;;;;;;8.71;100.00;92992.91;2596595;22;20011;-84
2023/06/04 02:16:13;;;;;;;19.23;12.05;;;;;;;8.84;100.00;92998.41;2610407;22;20439;-82
2023/06/04 02:17:23;;;;;;;22.42;13.25;;;;;;;8.85;100.00;92999.16;2606871;22;20030;-80
2023/06/04 02:18:36;;;;;;;21.30;12.80;;;;;;;8.91;100.00;93006.28;2583806;22;20004;-82
2023/06/04 02:31:51;;;;;;;;;;;;;;;8.51;100.00;93011.47;2618186;22;20842;-82
2023/06/04 02:33:01;;;;;;;27.98;16.33;;;;;;;8.48;100.00;93011.56;2585797;23;19999;-79
2023/06/04 02:34:11;;;;;;;24.45;15.35;;;;;;;8.53;100.00;93008.44;2564703;23;20007;-82
2023/06/04 02:35:18;;;;;;;;;;;;;;;8.48;100.00;93001.66;2577397;22;20756;-80
2023/06/04 02:36:29;;;;;;;23.83;13.95;;;;;;;8.48;100.00;93011.56;2585449;22;20034;-80
2023/06/04 02:37:40;;;;;;;24.67;14.32;;;;;;;8.48;100.00;93006.22;2589645;22;20015;-82
2023/06/04 02:38:46;;;;;;;25.77;14.55;;;;;;;8.49;100.00;92997.84;2587448;22;20023;-81
2023/06/04 02:39:57;;;;;;;22.85;14.48;;;;;;;8.50;100.00;93007.31;2587840;22;20000;-80
2023/06/04 02:41:10;;;;;;;21.60;14.38;;;;;;;8.51;100.00;93008.06;2598972;22;20004;-82
2023/06/04 02:42:21;;;;;;;24.25;15.18;;;;;;;8.49;100.00;93007.72;2587740;22;20012;-82
2023/06/04 02:43:29;;;;;;;21.38;13.60;;;;;;;8.50;100.00;93007.31;2577536;22;20004;-82
2023/06/04 02:44:41;;;;;;;24.08;13.55;;;;;;;8.44;100.00;93005.53;2575992;22;20091;-79
2023/06/04 02:45:51;;;;;;;21.08;13.68;;;;;;;8.50;100.00;93009.22;2590154;22;20011;-80
2023/06/04 02:47:15;;;;;;;27.15;14.27;;;;;;;8.51;100.00;93010.72;2611192;22;20056;-80
2023/06/04 02:48:24;;;;;;;24.67;14.65;;;;;;;8.45;100.00;93013.13;2611803;22;20013;-79
2023/06/04 02:49:33;;;;;;;21.02;13.70;;;;;;;8.57;100.00;93015.22;2610792;22;20082;-82
2023/06/04 02:50:45;;;;;;;24.80;13.63;;;;;;;8.50;100.00;93006.56;2586586;22;20643;-81
2023/06/04 02:51:58;;;;;;;28.40;14.07;;;;;;;8.40;100.00;93010.16;2578098;22;20004;-81
2023/06/04 02:53:08;;;;;;;22.05;13.57;;;;;;;8.44;100.00;93008.94;2590584;22;20003;-79
2023/06/04 02:54:18;;;;;;;27.27;14.63;;;;;;;8.33;100.00;93011.72;2587367;22;20007;-83
2023/06/04 02:55:30;;;;;;;20.08;13.57;;;;;;;8.31;100.00;93013.31;2598044;22;20004;-80
2023/06/04 02:56:45;;;;;;;21.15;13.27;;;;;;;8.36;100.00;93014.75;2588790;22;20007;-80
2023/06/04 02:57:55;;;;;;;26.13;13.95;;;;;;;8.47;100.00;93012.69;2577655;22;20004;-80
2023/06/04 02:59:09;;;;;;;28.65;13.35;;;;;;;8.24;100.00;93014.16;2576147;22;20083;-81
2023/06/04 03:00:20;;;;;;;25.20;13.40;;;;;;;8.25;100.00;93009.56;2588261;22;20596;-80
2023/06/04 03:01:51;;;;;;;20.90;12.88;;;;;;;8.18;100.00;93013.09;2597552;22;20088;-80
2023/06/04 03:03:04;;;;;;;25.15;13.48;;;;;;;8.11;100.00;93015.84;2592582;22;20059;-82
2023/06/04 03:04:15;;;;;;;22.25;13.68;;;;;;;8.22;100.00;93010.41;2577155;22;20004;-80
2023/06/04 03:05:26;;;;;;;27.42;14.60;;;;;;;8.19;100.00;93011.94;2587604;22;20008;-79
2023/06/04 03:06:57;;;;;;;22.38;13.43;;;;;;;8.32;100.00;93012.16;2604433;22;20030;-81
2023/06/04 03:08:10;;;;;;;22.52;13.18;;;;;;;8.30;100.00;93015.22;2604904;22;20414;-78
2023/06/04 03:09:20;;;;;;;23.90;13.77;;;;;;;8.23;100.00;93014.56;2588109;22;20004;-79
2023/06/04 03:10:31;;;;;;;18.67;12.73;;;;;;;8.18;100.00;93013.09;2576885;22;20070;-80
2023/06/04 03:11:41;;;;;;;20.13;13.13;;;;;;;8.23;100.00;93017.97;2600526;22;20029;-83
2023/06/04 03:12:56;;;;;;;18.98;12.30;;;;;;;8.21;100.00;93011.53;2597947;22;20013;-82
2023/06/04 03:14:04;;;;;;;22.35;13.18;;;;;;;8.20;100.00;93015.34;2578113;22;20070;-82
2023/06/04 03:15:16;;;;;;;21.98;13.20;;;;;;;8.14;100.00;93016.97;2588084;22;20419;-82
2023/06/04 03:16:47;;;;;;;21.00;12.90;;;;;;;8.21;100.00;93014.97;2604150;22;20010;-82
2023/06/04 03:17:57;;;;;;;21.15;13.70;;;;;;;8.16;100.00;93022.63;2610762;22;20003;-83
2023/06/04 03:19:08;;;;;;;17.70;12.38;;;;;;;8.16;100.00;93023.38;2587106;22;20053;-82
2023/06/04 03:20:17;;;;;;;22.55;12.95;;;;;;;8.23;100.00;93014.56;2587437;22;20004;-80
2023/06/04 03:21:28;;;;;;;19.50;13.27;;;;;;;8.22;100.00;93026.38;2586575;22;20000;-79
2023/06/04 03:22:39;;;;;;;21.30;13.80;;;;;;;8.20;100.00;93018.78;2587289;22;20008;-81
2023/06/04 03:23:50;;;;;;;22.42;13.77;;;;;;;8.11;100.00;93015.09;2576763;22;20012;-80
2023/06/04 03:25:06;;;;;;;21.08;13.40;;;;;;;8.10;100.00;93024.25;2590961;22;20012;-83
2023/06/04 03:26:16;;;;;;;20.75;13.02;;;;;;;8.06;100.00;93024.31;2588292;22;20018;-83
2023/06/04 03:27:25;;;;;;;23.25;13.52;;;;;;;8.02;100.00;93016.34;2586909;22;20034;-82
2023/06/04 03:28:37;;;;;;;20.70;13.50;;;;;;;8.08;100.00;93024.66;2587105;22;20008;-82
2023/06/04 03:29:47;;;;;;;21.20;13.30;;;;;;;8.12;100.00;93025.38;2589860;22;20079;-82
2023/06/04 03:30:58;;;;;;;;;;;;;;;8.14;100.00;93022.31;2587416;22;20004;-80
2023/06/04 03:32:08;;;;;;;21.77;13.85;;;;;;;8.13;100.00;93013.56;2588047;22;20301;-83
2023/06/04 03:33:19;;;;;;;23.23;13.70;;;;;;;8.13;100.00;93020.81;2596984;22;20441;-81
2023/06/04 03:34:40;;;;;;;22.80;13.95;;;;;;;8.08;100.00;93017.44;2584287;22;20008;-82
2023/06/04 03:35:50;;;;;;;24.52;14.35;;;;;;;8.13;100.00;93015.47;2578896;22;20090;-80
2023/06/04 03:37:00;;;;;;;19.83;13.18;;;;;;;8.12;100.00;93021.94;2586597;22;20004;-79
2023/06/04 03:38:12;;;;;;;21.95;13.63;;;;;;;8.00;100.00;93021.34;2595515;22;20406;-82
2023/06/04 03:39:25;;;;;;;22.08;13.70;;;;;;;8.03;100.00;93017.88;2586692;22;20099;-82
2023/06/04 03:40:33;;;;;;;24.13;14.07;;;;;;;8.00;100.00;93021.34;2597624;22;20518;-80
2023/06/04 03:41:47;;;;;;;23.08;12.98;;;;;;;8.01;100.00;93024.75;2584845;22;20000;-80
2023/06/04 03:43:00;;;;;;;25.02;13.65;;;;;;;8.13;100.00;93023.47;2587421;22;20004;-82
2023/06/04 03:44:10;;;;;;;21.83;13.57;;;;;;;8.15;100.00;93023.81;2585468;22;20011;-82
2023/06/04 03:45:23;;;;;;;23.27;13.20;;;;;;;8.20;100.00;93029.41;2573850;22;20004;-82
2023/06/04 03:46:33;;;;;;;21.83;13.85;;;;;;;8.10;100.00;93026.91;2588038;22;20569;-81
2023/06/04 03:47:44;;;;;;;21.02;13.93;;;;;;;8.12;100.00;93025.38;2595149;22;20015;-82
2023/06/04 03:49:05;;;;;;;21.95;13.80;;;;;;;8.10;100.00;93032.25;2574679;22;20050;-80
2023/06/04 03:50:14;;;;;;;24.55;14.05;;;;;;;7.99;100.00;93029.72;2578927;22;20137;-81
2023/06/04 03:51:26;;;;;;;22.90;14.25;;;;;;;8.05;100.00;93028.13;2586058;22;20383;-80
2023/06/04 03:52:37;;;;;;;22.55;13.82;;;;;;;8.11;100.00;93037.16;2584742;22;20034;-81
2023/06/04 03:53:50;;;;;;;20.23;13.57;;;;;;;8.17;100.00;93027.59;2587020;22;20587;-80
2023/06/04 03:55:00;;;;;;;22.75;13.80;;;;;;;8.21;100.00;93038.16;2585144;22;20007;-81
2023/06/04 03:56:09;;;;;;;21.88;13.85;;;;;;;8.16;100.00;93042.03;2597756;22;20396;-81
2023/06/04 03:57:19;;;;;;;21.95;13.93;;;;;;;8.20;100.00;93040.06;2596547;22;20053;-80
2023/06/04 03:58:29;;;;;;;21.23;13.98;;;;;;;8.20;100.00;93039.31;2574848;22;20036;-80
2023/06/04 03:59:39;;;;;;;21.27;14.18;;;;;;;8.14;100.00;93041.69;2574154;22;20017;-81
2023/06/04 04:00:48;;;;;;;21.80;13.93;;;;;;;8.19;100.00;93045.81;2574657;22;20008;-81
2023/06/04 04:02:02;;;;;;;17.70;13.23;;;;;;;8.16;100.00;93034.03;2585038;22;20067;-81
2023/06/04 04:03:12;;;;;;;25.17;14.23;;;;;;;8.26;100.00;93048.38;2575404;22;20703;-79
2023/06/04 04:04:19;;;;;;;;;;;;;;;8.32;100.00;93044.09;2574792;22;20005;-81
2023/06/04 04:05:29;;;;;;;24.05;13.90;;;;;;;8.27;100.00;93037.31;2572634;22;20026;-81
2023/06/04 04:06:52;;;;;;;24.10;13.68;;;;;;;8.31;100.00;93042.59;2579045;22;20003;-82
2023/06/04 04:08:05;;;;;;;23.95;14.40;;;;;;;8.36;100.00;93047.47;2576920;22;20008;-82
2023/06/04 04:09:14;;;;;;;22.25;14.15;;;;;;;8.32;100.00;93041.44;2575617;22;20006;-80
2023/06/04 04:10:25;;;;;;;23.75;14.63;;;;;;;8.21;100.00;93038.16;2597155;22;20150;-82
2023/06/04 04:11:35;;;;;;;20.00;14.07;;;;;;;8.22;100.00;93037.03;2608223;22;20002;-80
2023/06/04 04:12:45;;;;;;;22.23;14.48;;;;;;;8.28;100.00;93035.41;2595218;22;20006;-80
2023/06/04 04:13:55;;;;;;;23.45;14.65;;;;;;;8.33;100.00;93035.69;2586369;22;20551;-82
2023/06/04 04:15:08;;;;;;;24.45;14.18;;;;;;;8.32;100.00;93036.09;2597468;22;20026;-80
2023/06/04 04:16:18;;;;;;;22.73;13.77;;;;;;;8.34;100.00;93039.13;2608004;22;20003;-82
2023/06/04 04:17:29;;;;;;;25.58;14.60;;;;;;;8.31;100.00;93042.59;2594864;22;20012;-80
2023/06/04 04:18:46;;;;;;;21.55;14.15;;;;;;;8.37;100.00;93032.25;2573724;22;20013;-80
2023/06/04 04:19:56;;;;;;;22.55;14.30;;;;;;;8.30;100.00;93033.84;2576626;22;20005;-81
2023/06/04 04:21:06;;;;;;;22.17;15.20;;;;;;;8.33;100.00;93033.03;2573560;22;20696;-82
2023/06/04 04:22:20;;;;;;;26.35;14.70;;;;;;;8.33;100.00;93037.59;2586407;22;20004;-80
2023/06/04 04:23:31;;;;;;;26.05;15.10;;;;;;;8.33;100.00;93032.28;2585105;22;20683;-80
2023/06/04 04:24:44;;;;;;;29.15;14.85;;;;;;;8.34;100.00;93028.47;2573837;22;20371;-79
2023/06/04 04:25:58;;;;;;;29.38;14.77;;;;;;;8.37;100.00;93033.00;2587104;22;20059;-80
2023/06/04 04:27:10;;;;;;;29.10;15.75;;;;;;;8.38;100.00;93033.75;2585209;22;20311;-80
2023/06/04 04:28:20;;;;;;;27.63;15.35;;;;;;;8.40;100.00;93034.13;2574960;22;20004;-80
2023/06/04 04:29:43;;;;;;;33.75;14.68;;;;;;;8.48;100.00;93036.28;2577507;22;20063;-81
2023/06/04 04:30:53;;;;;;;26.05;15.45;;;;;;;8.47;100.00;93034.00;2602015;22;20023;-80
2023/06/04 04:32:10;;;;;;;25.92;14.13;;;;;;;8.47;100.00;93032.13;2607440;22;20015;-83
2023/06/04 04:33:36;;;;;;;31.17;15.05;;;;;;;8.50;100.00;93035.88;2607540;22;20036;-82
2023/06/04 04:35:09;;;;;;;28.45;15.35;;;;;;;8.50;100.00;93033.97;2601724;22;20029;-82
2023/06/04 04:36:34;;;;;;;;;;;;;;;;;;;;;
2023/06/04 04:37:48;;;;;;;26.08;14.82;;;;;;;8.58;100.00;93039.94;2600188;22;20445;-82
2023/06/04 04:38:58;;;;;;;26.17;15.65;;;;;;;8.60;100.00;93040.28;2594985;22;20448;-81
2023/06/04 04:40:23;;;;;;;29.83;15.02;;;;;;;8.66;100.00;93048.59;2591973;22;20057;-82
2023/06/04 04:41:35;;;;;;;29.08;15.85;;;;;;;8.70;100.00;93043.94;2584966;22;20654;-80
2023/06/04 04:42:57;;;;;;;28.55;15.63;;;;;;;8.68;100.00;93048.91;2578629;22;20010;-81
2023/06/04 04:44:10;;;;;;;25.95;14.82;;;;;;;8.73;100.00;93048.44;2588878;22;20114;-81
2023/06/04 04:45:30;;;;;;;25.70;14.85;;;;;;;8.79;100.00;93044.19;2598873;22;20384;-82
2023/06/04 04:46:56;;;;;;;24.30;13.98;;;;;;;8.87;100.00;93042.13;2587995;22;20094;-80
2023/06/04 04:48:09;;;;;;;22.70;15.00;;;;;;;8.82;100.00;93043.34;2600077;22;20396;-82
2023/06/04 04:49:38;;;;;;;28.55;14.88;;;;;;;8.90;100.00;93046.66;2607574;22;19999;-82
2023/06/04 04:51:07;;;;;;;27.73;15.48;;;;;;;8.94;100.00;93048.09;2605157;22;19999;-80
2023/06/04 04:52:40;;;;;;;26.42;15.18;;;;;;;9.02;100.00;93043.41;2607087;22;20435;-82
2023/06/04 04:54:11;;;;;;;25.35;16.23;;;;;;;9.04;100.00;93043.75;2607882;22;20007;-82
2023/06/04 04:55:40;;;;;;;27.60;15.27;;;;;;;9.04;100.00;93049.88;2607050;22;20062;-82
2023/06/04 04:56:51;;;;;;;38.35;16.60;;;;;;;9.13;100.00;93051.22;2601194;22;20003;-79
2023/06/04 04:57:57;;;;;;;;;;;;;;;9.16;100.00;93047.75;2595234;22;20464;-81
2023/06/04 04:59:08;;;;;;;26.75;15.85;;;;;;;9.24;100.00;93044.56;2571616;22;19904;-81
2023/06/04 05:00:20;;;;;;;28.98;16.30;;;;;;;9.33;100.00;93046.69;2573703;22;20005;-80
2023/06/04 05:01:29;;;;;;;31.65;16.23;;;;;;;9.37;100.00;93050.03;2584009;22;20024;-80
2023/06/04 05:02:40;;;;;;;36.67;16.65;;;;;;;9.42;100.00;93052.22;2572569;22;20012;-81
2023/06/04 05:03:48;;;;;;;30.38;15.77;;;;;;;9.46;100.00;93044.91;2573240;22;20629;-81
2023/06/04 05:04:58;;;;;;;25.73;16.13;;;;;;;9.52;100.00;93053.19;2584705;22;20513;-79
2023/06/04 05:06:08;;;;;;;27.45;16.02;;;;;;;9.53;100.00;93046.72;2594593;22;20035;-80
2023/06/04 05:07:15;;;;;;;;;;;;;;;9.59;100.00;93051.16;2597434;22;20012;-81
2023/06/04 05:08:24;;;;;;;27.88;15.82;;;;;;;9.61;100.00;93045.38;2594381;22;19933;-80
2023/06/04 05:09:33;;;;;;;27.30;16.65;;;;;;;9.63;100.00;93047.66;2585764;22;20339;-80
2023/06/04 05:10:46;;;;;;;28.25;17.60;;;;;;;9.69;100.00;93048.69;2583542;22;20022;-82
2023/06/04 05:12:10;;;;;;;29.80;16.27;;;;;;;9.72;100.00;93045.94;2592995;22;20007;-82
2023/06/04 05:13:22;;;;;;;31.33;17.38;;;;;;;9.75;100.00;93047.06;2586947;22;20003;-81
2023/06/04 05:14:38;;;;;;;28.05;17.52;;;;;;;9.81;100.00;93053.41;2586725;22;20087;-80
2023/06/04 05:15:52;;;;;;;32.33;17.95;;;;;;;9.85;100.00;93048.75;2597640;22;20070;-83
2023/06/04 05:17:06;;;;;;;30.08;17.67;;;;;;;9.93;100.00;93050.13;2584052;22;20008;-82
2023/06/04 05:18:16;;;;;;;30.23;17.20;;;;;;;9.99;100.00;93047.69;2575071;22;20000;-81
2023/06/04 05:19:32;;;;;;;25.08;16.90;;;;;;;10.05;100.00;93051.38;2573881;22;20061;-80
2023/06/04 05:20:42;;;;;;;36.78;19.33;;;;;;;10.07;100.00;93060.50;2575351;22;20405;-82
2023/06/04 05:21:52;;;;;;;33.22;19.77;;;;;;;10.18;100.00;93054.91;2596362;22;20083;-82
2023/06/04 05:22:58;;;;;;;;;;;;;;;10.28;100.00;93053.97;2597261;22;20003;-82
2023/06/04 05:24:10;;;;;;;35.95;19.83;;;;;;;10.32;100.00;93053.91;2595499;22;19953;-79
2023/06/04 05:25:19;;;;;;;40.17;21.80;;;;;;;10.39;100.00;93059.09;2606605;22;20007;-82
2023/06/04 05:26:33;;;;;;;38.80;20.02;;;;;;;10.44;100.00;93055.91;2609178;22;20078;-82
2023/06/04 05:27:50;;;;;;;35.38;19.67;;;;;;;10.59;100.00;93062.47;2608104;22;20097;-82
2023/06/04 05:29:04;;;;;;;34.13;17.90;;;;;;;10.73;100.00;93058.69;2598527;22;20003;-80
2023/06/04 05:30:23;;;;;;;35.60;18.65;;;;;;;10.79;100.00;93058.94;2584482;22;20529;-81
2023/06/04 05:31:34;;;;;;;32.38;17.52;;;;;;;10.86;100.00;93060.72;2585801;22;20374;-80
2023/06/04 05:32:44;;;;;;;34.42;17.35;;;;;;;10.94;100.00;93065.47;2574056;22;20012;-83
2023/06/04 05:33:53;;;;;;;32.72;17.30;;;;;;;11.06;100.00;93064.03;2573070;22;19997;-82
2023/06/04 05:35:04;;;;;;;28.90;15.55;;;;;;;11.14;100.00;93062.69;2584269;22;20012;-81
2023/06/04 05:36:14;;;;;;;22.92;14.57;;;;;;;11.22;100.00;93073.97;2573909;22;20099;-81
2023/06/04 05:37:23;;;;;;;;;;;;;;;11.26;100.00;93070.03;2586349;22;20027;-82
2023/06/04 05:38:35;;;;;;;28.77;15.35;;;;;;;11.41;100.00;93059.72;2583672;22;19978;-81
2023/06/04 05:39:47;;;;;;;26.15;14.82;;;;;;;11.47;100.00;93058.03;2574097;22;20008;-80
2023/06/04 05:40:58;;;;;;;24.58;14.38;;;;;;;11.53;100.00;93072.41;2586531;22;20036;-80
2023/06/04 05:42:09;;;;;;;24.13;13.95;;;;;;;11.57;100.00;93065.03;2584063;22;20100;-82